Time;durP1;ratioP1;P1;durP2;ratioP2;P2;SDS_P1;SDS_P2;PMS_P1;PMS_P2;Temp;Humidity;BMP_temperature;BMP_pressure;BME280_temperature;BME280_humidity;BME280_pressure;Samples;Min_cycle;Max_cycle;Signal;HPM_P1;HPM_P2
2022/09/11 00:01:04;;;;;;;1999.90;999.90;;;;;;;14.01;100.00;93911.72;6245813;23;20213;-62
2022/09/11 00:03:30;;;;;;;1999.90;999.90;;;;;;;13.99;100.00;93914.19;6245907;22;20169;-63
2022/09/11 00:06:01;;;;;;;1999.90;999.90;;;;;;;13.92;100.00;93920.78;6271467;22;20242;-63
2022/09/11 00:08:26;;;;;;;1999.90;999.90;;;;;;;13.92;100.00;93923.50;6246458;23;20178;-63
2022/09/11 00:10:52;;;;;;;1999.90;999.90;;;;;;;13.95;100.00;93927.31;6271416;22;20171;-62
2022/09/11 00:13:20;;;;;;;1999.90;999.90;;;;;;;13.96;100.00;93926.84;6245855;22;20164;-63
2022/09/11 00:15:48;;;;;;;1999.90;999.90;;;;;;;13.95;100.00;93930.81;6246448;22;20166;-63
2022/09/11 00:18:16;;;;;;;1999.90;999.90;;;;;;;13.98;100.00;93932.63;6246385;22;20585;-63
2022/09/11 00:20:56;;;;;;;1999.90;999.90;;;;;;;13.96;100.00;93929.59;6271491;22;20188;-63
2022/09/11 00:23:23;;;;;;;1999.90;999.90;;;;;;;13.98;100.00;93935.38;6271546;22;20158;-63
2022/09/11 00:25:49;;;;;;;1999.90;999.90;;;;;;;13.98;100.00;93946.34;6245971;22;20185;-63
2022/09/11 00:28:18;;;;;;;1999.90;999.90;;;;;;;13.95;100.00;93950.00;6246265;22;20163;-64
2022/09/11 00:30:44;;;;;;;1999.90;999.90;;;;;;;13.98;100.00;93951.09;6245736;22;20194;-63
2022/09/11 00:33:14;;;;;;;1999.90;999.90;;;;;;;13.92;100.00;93956.44;6246241;22;20165;-62
2022/09/11 00:35:41;;;;;;;1999.90;999.90;;;;;;;13.95;100.00;93961.00;6246101;23;20221;-63
2022/09/11 00:38:07;;;;;;;1999.90;999.90;;;;;;;13.94;100.00;93961.44;6245783;23;20218;-63
2022/09/11 00:40:45;;;;;;;1999.90;999.90;;;;;;;13.95;100.00;93969.22;6245281;23;20192;-64
2022/09/11 00:43:13;;;;;;;1999.90;999.90;;;;;;;13.95;100.00;93969.22;6245787;23;20168;-64
2022/09/11 00:45:38;;;;;;;1999.90;999.90;;;;;;;13.96;100.00;93965.28;6271128;22;20222;-63
2022/09/11 00:48:04;;;;;;;1999.90;999.90;;;;;;;13.96;100.00;93976.25;6246147;23;20172;-64
2022/09/11 00:50:31;;;;;;;1999.90;999.90;;;;;;;13.98;100.00;93979.28;6245847;23;20188;-63
2022/09/11 00:53:01;;;;;;;1999.90;999.90;;;;;;;13.96;100.00;93981.75;6271252;22;20175;-63
2022/09/11 00:55:31;;;;;;;1999.90;999.90;;;;;;;13.97;100.00;93983.28;6271289;22;20173;-62
2022/09/11 00:58:18;;;;;;;1999.90;999.90;;;;;;;13.95;100.00;93977.47;6246171;22;20539;-62
2022/09/11 01:00:44;;;;;;;1999.90;999.90;;;;;;;13.93;100.00;93988.16;6245416;23;20238;-63
2022/09/11 01:03:10;;;;;;;1999.90;999.90;;;;;;;13.95;100.00;93984.97;6245796;22;20164;-62
2022/09/11 01:05:38;;;;;;;1999.90;999.90;;;;;;;13.92;100.00;93992.13;6246155;23;20214;-62
2022/09/11 01:08:05;;;;;;;1999.90;999.90;;;;;;;13.87;100.00;93984.50;6246180;23;20166;-64
2022/09/11 01:10:55;;;;;;;1999.90;999.90;;;;;;;13.87;100.00;93986.50;6245708;23;20168;-64
2022/09/11 01:13:26;;;;;;;1999.90;999.90;;;;;;;13.81;100.00;93978.09;6245865;23;20661;-64
2022/09/11 01:16:11;;;;;;;1999.90;999.90;;;;;;;13.82;100.00;93982.38;6271357;22;20163;-63
2022/09/11 01:19:00;;;;;;;1999.90;999.90;;;;;;;13.84;100.00;93968.94;6271466;22;20216;-63
2022/09/11 01:22:06;;;;;;;1999.90;999.90;;;;;;;13.86;100.00;93969.25;6271594;22;20188;-63
2022/09/11 01:24:50;;;;;;;1999.90;999.90;;;;;;;13.82;100.00;93968.66;6271649;22;20163;-62
2022/09/11 01:27:38;;;;;;;1999.90;999.90;;;;;;;13.83;100.00;93967.41;6246259;23;20194;-63
2022/09/11 01:30:07;;;;;;;1999.90;999.90;;;;;;;13.84;100.00;93962.72;6245605;23;20174;-62
2022/09/11 01:32:36;;;;;;;1999.90;999.90;;;;;;;13.82;100.00;93957.66;6245689;22;20220;-63
2022/09/11 01:35:07;;;;;;;1999.90;999.90;;;;;;;13.79;100.00;93966.81;6271060;22;20225;-64
2022/09/11 01:37:43;;;;;;;1999.90;999.90;;;;;;;13.84;100.00;93957.22;6271214;22;20174;-62
2022/09/11 01:40:23;;;;;;;1999.90;999.90;;;;;;;13.85;100.00;93962.25;6245749;23;20187;-63
2022/09/11 01:42:53;;;;;;;1999.90;999.90;;;;;;;13.86;100.00;93952.78;6246079;23;20210;-62
2022/09/11 01:45:20;;;;;;;1999.90;999.90;;;;;;;13.84;100.00;93955.22;6245852;22;20470;-63
2022/09/11 01:47:48;;;;;;;1999.90;999.90;;;;;;;13.83;100.00;93961.16;6271205;22;20171;-62
2022/09/11 01:50:16;;;;;;;1999.90;999.90;;;;;;;13.81;100.00;93964.38;6271355;22;20184;-62
2022/09/11 01:52:52;;;;;;;1999.90;999.90;;;;;;;13.81;100.00;93964.38;6245589;22;20163;-62
2022/09/11 01:55:23;;;;;;;1999.90;999.90;;;;;;;13.81;100.00;93961.66;6244591;23;20199;-62
2022/09/11 01:58:05;;;;;;;1999.90;999.90;;;;;;;13.79;100.00;93964.06;6245069;23;20172;-61
2022/09/11 02:00:34;;;;;;;1999.90;999.90;;;;;;;13.81;100.00;93953.41;6271354;22;20235;-62
2022/09/11 02:03:08;;;;;;;1999.90;999.90;;;;;;;13.81;100.00;93958.91;6245545;22;20539;-61
2022/09/11 02:05:48;;;;;;;1999.90;999.90;;;;;;;13.82;100.00;93960.41;6246133;23;20166;-61
2022/09/11 02:08:26;;;;;;;1999.90;999.90;;;;;;;13.79;100.00;93961.31;6246174;23;20165;-62
2022/09/11 02:11:02;;;;;;;1999.90;999.90;;;;;;;13.82;100.00;93954.94;6246025;23;20194;-62
2022/09/11 02:14:14;;;;;;;1999.90;999.90;;;;;;;13.90;100.00;93956.13;6246030;23;20173;-63
2022/09/11 02:17:04;;;;;;;1999.90;999.90;;;;;;;13.90;100.00;93961.63;6130380;23;20174;-63
2022/09/11 02:19:30;;;;;;;1999.90;999.90;;;;;;;13.91;100.00;93974.13;6154833;23;20167;-63
2022/09/11 02:21:57;;;;;;;1999.90;999.90;;;;;;;13.91;100.00;93973.38;6232596;22;20271;-63
2022/09/11 02:24:23;;;;;;;1999.90;999.90;;;;;;;13.90;100.00;93978.09;6271292;22;20327;-63
2022/09/11 02:26:57;;;;;;;1999.90;999.90;;;;;;;13.88;100.00;93975.03;6245355;23;20168;-62
2022/09/11 02:29:23;;;;;;;1999.90;999.90;;;;;;;13.89;100.00;93975.81;6245050;23;20246;-63
2022/09/11 02:31:48;;;;;;;1999.90;999.90;;;;;;;13.89;100.00;93973.06;6245163;22;20204;-62
2022/09/11 02:34:14;;;;;;;1999.90;999.90;;;;;;;13.92;100.00;93978.41;6245483;22;20185;-63
2022/09/11 02:37:11;;;;;;;1999.90;999.90;;;;;;;13.96;100.00;93980.97;6245566;23;20169;-62
2022/09/11 02:40:01;;;;;;;1999.90;999.90;;;;;;;13.92;100.00;93970.16;6270703;22;20167;-63
2022/09/11 02:42:49;;;;;;;1999.90;999.90;;;;;;;13.92;100.00;93972.91;6271486;22;20160;-63
2022/09/11 02:45:41;;;;;;;1999.90;999.90;;;;;;;13.93;100.00;93971.69;6271192;22;20164;-62
2022/09/11 02:48:35;;;;;;;1999.90;999.90;;;;;;;13.90;100.00;93967.13;6185293;23;20172;-63
2022/09/11 02:51:18;;;;;;;1999.90;999.90;;;;;;;13.90;100.00;93969.84;6245190;23;20188;-63
2022/09/11 02:54:29;;;;;;;1999.90;999.90;;;;;;;13.87;100.00;93962.53;6271145;22;20244;-62
2022/09/11 02:57:00;;;;;;;1999.90;999.90;;;;;;;13.80;100.00;93957.34;6185983;23;20172;-62
2022/09/11 02:59:39;;;;;;;1999.90;999.90;;;;;;;13.77;100.00;93957.53;6188926;23;20197;-63
2022/09/11 03:02:11;;;;;;;1999.90;999.90;;;;;;;13.77;100.00;93958.25;6188726;23;20170;-63
2022/09/11 03:04:37;;;;;;;1999.90;999.90;;;;;;;13.75;100.00;93960.72;6188520;23;20212;-63
2022/09/11 03:07:02;;;;;;;1999.90;999.90;;;;;;;13.77;100.00;93936.31;6190363;23;20172;-62
2022/09/11 03:09:28;;;;;;;1999.90;999.90;;;;;;;13.76;100.00;93934.06;6190072;23;20169;-62
2022/09/11 03:11:54;;;;;;;1999.90;999.90;;;;;;;13.73;100.00;93935.72;6189892;23;20202;-62
2022/09/11 03:14:19;;;;;;;1999.90;999.90;;;;;;;13.70;100.00;93936.66;6190656;23;20235;-62
2022/09/11 03:16:45;;;;;;;1999.90;999.90;;;;;;;13.70;100.00;93928.41;6189533;23;20173;-62
2022/09/11 03:19:11;;;;;;;1999.90;999.90;;;;;;;13.69;100.00;93924.13;6190189;23;20170;-63
2022/09/11 03:21:36;;;;;;;1999.90;999.90;;;;;;;13.68;100.00;93922.63;6189956;23;20193;-62
2022/09/11 03:24:02;;;;;;;1999.90;999.90;;;;;;;13.68;100.00;93919.88;6190180;23;20173;-62
2022/09/11 03:26:28;;;;;;;1999.90;999.90;;;;;;;13.71;100.00;93916.22;6190266;23;20178;-62
2022/09/11 03:28:53;;;;;;;1999.90;999.90;;;;;;;13.75;100.00;93910.56;6238878;23;20204;-62
2022/09/11 03:31:19;;;;;;;1999.90;999.90;;;;;;;13.78;100.00;93915.91;6245551;22;20559;-62
2022/09/11 03:33:45;;;;;;;1999.90;999.90;;;;;;;13.77;100.00;93903.38;6246261;23;20166;-62
2022/09/11 03:36:11;;;;;;;1999.90;999.90;;;;;;;13.73;100.00;93897.31;6246020;22;20179;-62
2022/09/11 03:38:36;;;;;;;1999.90;999.90;;;;;;;13.76;100.00;93899.13;6246137;23;20168;-62
2022/09/11 03:41:02;;;;;;;1999.90;999.90;;;;;;;13.75;100.00;93900.34;6271189;22;20222;-62
2022/09/11 03:43:28;;;;;;;1999.90;999.90;;;;;;;13.77;100.00;93897.91;6271430;22;20167;-62
2022/09/11 03:45:53;;;;;;;1999.90;999.90;;;;;;;13.76;100.00;93893.66;6271464;22;20167;-61
2022/09/11 03:48:19;;;;;;;1999.90;999.90;;;;;;;13.75;100.00;93894.88;6271469;22;20248;-62
2022/09/11 03:50:44;;;;;;;1999.90;999.90;;;;;;;13.76;100.00;93901.88;6246062;22;20192;-62
2022/09/11 03:53:11;;;;;;;1999.90;999.90;;;;;;;13.77;100.00;93892.41;6245984;23;20175;-62
2022/09/11 03:55:37;;;;;;;1999.90;999.90;;;;;;;13.75;100.00;93894.88;6245862;23;20178;-62
2022/09/11 03:58:03;;;;;;;1999.90;999.90;;;;;;;13.74;100.00;93898.84;6271839;22;20188;-62
2022/09/11 04:00:28;;;;;;;1999.90;999.90;;;;;;;13.69;100.00;93907.66;6246170;22;20180;-62
2022/09/11 04:02:57;;;;;;;1999.90;999.90;;;;;;;13.68;100.00;93911.66;6272227;22;20164;-62
2022/09/11 04:05:25;;;;;;;1999.90;999.90;;;;;;;13.67;100.00;93910.13;6245639;22;20167;-62
2022/09/11 04:07:54;;;;;;;1999.90;999.90;;;;;;;13.65;100.00;93915.31;6272024;22;20246;-62
2022/09/11 04:10:20;;;;;;;1999.90;999.90;;;;;;;13.64;100.00;93922.00;6246416;22;20586;-62
2022/09/11 04:12:48;;;;;;;1999.90;999.90;;;;;;;13.65;100.00;93922.78;6245857;23;20159;-62
2022/09/11 04:15:14;;;;;;;1999.90;999.90;;;;;;;13.65;100.00;93929.00;6271161;22;20172;-63
2022/09/11 04:17:40;;;;;;;1999.90;999.90;;;;;;;13.62;100.00;93927.19;6270826;22;20183;-62
2022/09/11 04:20:06;;;;;;;1999.90;999.90;;;;;;;13.54;100.00;93927.97;6271186;22;20187;-63
2022/09/11 04:22:31;;;;;;;1999.90;999.90;;;;;;;13.53;100.00;93927.19;6246022;23;20163;-62
2022/09/11 04:24:57;;;;;;;1999.90;999.90;;;;;;;13.52;100.00;93922.94;6271091;22;20600;-62
2022/09/11 04:27:23;;;;;;;1999.90;999.90;;;;;;;13.52;100.00;93919.44;6271799;22;20542;-62
2022/09/11 04:29:49;;;;;;;1999.90;999.90;;;;;;;13.59;100.00;93930.09;6271721;22;20241;-62
2022/09/11 04:32:14;;;;;;;1999.90;999.90;;;;;;;13.62;100.00;93923.69;6245912;22;20195;-62
2022/09/11 04:34:40;;;;;;;1999.90;999.90;;;;;;;13.62;100.00;93923.69;6245681;22;20161;-62
2022/09/11 04:37:05;;;;;;;1999.90;999.90;;;;;;;13.65;100.00;93923.53;6245798;22;20209;-63
2022/09/11 04:39:31;;;;;;;1999.90;999.90;;;;;;;13.69;100.00;93921.38;6271128;22;20177;-62
2022/09/11 04:41:56;;;;;;;1999.90;999.90;;;;;;;13.70;100.00;93928.41;6246268;23;20180;-63
2022/09/11 04:44:24;;;;;;;1999.90;999.90;;;;;;;13.72;100.00;93934.19;6245615;22;20178;-62
2022/09/11 04:46:49;;;;;;;1999.90;999.90;;;;;;;13.71;100.00;93932.69;6246340;22;20185;-62
2022/09/11 04:49:15;;;;;;;1999.90;999.90;;;;;;;13.69;100.00;93946.09;6245693;22;20199;-63
2022/09/11 04:51:41;;;;;;;1999.90;999.90;;;;;;;13.67;100.00;93940.31;6271352;22;20210;-62
2022/09/11 04:54:11;;;;;;;1999.90;999.90;;;;;;;13.68;100.00;93939.06;6245667;22;20170;-62
2022/09/11 04:56:37;;;;;;;1999.90;999.90;;;;;;;13.71;100.00;93945.63;6246041;22;20199;-63
2022/09/11 04:59:12;;;;;;;1999.90;999.90;;;;;;;13.69;100.00;93939.84;6245359;23;20182;-63
2022/09/11 05:01:38;;;;;;;1999.90;999.90;;;;;;;13.74;100.00;93942.75;6246066;23;20242;-61
2022/09/11 05:04:04;;;;;;;1999.90;999.90;;;;;;;13.69;100.00;93954.31;6246261;23;20183;-63
2022/09/11 05:06:30;;;;;;;1999.90;999.90;;;;;;;13.70;100.00;93952.34;6246167;23;20164;-62
2022/09/11 05:09:00;;;;;;;1999.90;999.90;;;;;;;13.69;100.00;93953.56;6245543;23;20200;-63
2022/09/11 05:11:26;;;;;;;1999.90;999.90;;;;;;;13.69;100.00;93951.56;6246125;23;20168;-63
2022/09/11 05:13:52;;;;;;;1999.90;999.90;;;;;;;13.66;100.00;93949.00;6271042;22;20234;-62
2022/09/11 05:16:18;;;;;;;1999.90;999.90;;;;;;;13.65;100.00;93934.50;6245630;22;20238;-63
2022/09/11 05:18:50;;;;;;;1999.90;999.90;;;;;;;13.66;100.00;93925.03;6271770;22;20472;-63
2022/09/11 05:21:17;;;;;;;1999.90;999.90;;;;;;;13.67;100.00;93931.31;6245841;23;20187;-63
2022/09/11 05:23:46;;;;;;;1999.90;999.90;;;;;;;13.70;100.00;93925.69;6245709;23;20164;-62
2022/09/11 05:26:17;;;;;;;1999.90;999.90;;;;;;;13.69;100.00;93915.91;6271244;22;20248;-63
2022/09/11 05:28:43;;;;;;;1999.90;999.90;;;;;;;13.74;100.00;93912.56;6246046;22;20164;-62
2022/09/11 05:31:15;;;;;;;1999.90;999.90;;;;;;;13.75;100.00;93902.34;6245490;22;20162;-63
2022/09/11 05:33:42;;;;;;;1999.90;999.90;;;;;;;13.76;100.00;93907.38;6246105;23;20190;-62
2022/09/11 05:36:08;;;;;;;1999.90;999.90;;;;;;;13.81;100.00;93903.25;6245429;23;20187;-63
2022/09/11 05:38:35;;;;;;;1999.90;999.90;;;;;;;13.81;100.00;93898.53;6245366;23;20219;-63
2022/09/11 05:41:01;;;;;;;1999.90;999.90;;;;;;;13.80;100.00;93907.22;6245595;22;20689;-62
2022/09/11 05:43:26;;;;;;;1999.90;999.90;;;;;;;13.80;100.00;93897.00;6271014;22;20192;-62
2022/09/11 05:45:56;;;;;;;1999.90;999.90;;;;;;;13.81;100.00;93909.50;6245478;22;20164;-61
2022/09/11 05:48:22;;;;;;;1999.90;999.90;;;;;;;13.82;100.00;93911.03;6245813;23;20172;-61
2022/09/11 05:50:58;;;;;;;1999.90;999.90;;;;;;;13.91;100.00;93913.00;6245227;23;20626;-62
2022/09/11 05:53:25;;;;;;;1999.90;999.90;;;;;;;13.98;100.00;93913.41;6271143;22;20170;-61
2022/09/11 05:55:51;;;;;;;1999.90;999.90;;;;;;;14.04;100.00;93916.31;6271550;22;20174;-61
2022/09/11 05:58:17;;;;;;;1999.90;999.90;;;;;;;14.08;100.00;93923.16;6245425;23;20176;-63
2022/09/11 06:00:45;;;;;;;1999.90;999.90;;;;;;;14.11;100.00;93921.47;6245440;23;20185;-62
2022/09/11 06:03:12;;;;;;;1999.90;999.90;;;;;;;14.15;100.00;93925.59;6271289;22;20206;-61
2022/09/11 06:05:37;;;;;;;1999.90;999.90;;;;;;;14.22;100.00;93932.75;6271568;22;20215;-62
2022/09/11 06:08:03;;;;;;;1999.90;999.90;;;;;;;14.26;100.00;93953.34;6245375;23;20169;-62
2022/09/11 06:10:29;;;;;;;1999.90;999.90;;;;;;;14.27;100.00;93968.59;6245262;22;20182;-62
2022/09/11 06:12:54;;;;;;;1999.90;999.90;;;;;;;14.32;100.00;93975.47;6271058;22;20164;-62
2022/09/11 06:15:19;;;;;;;1999.90;999.90;;;;;;;14.33;100.00;93980.50;6270706;22;20164;-62
2022/09/11 06:17:45;;;;;;;1999.90;999.90;;;;;;;14.41;100.00;93978.94;6270692;22;20190;-62
2022/09/11 06:20:11;;;;;;;1999.90;999.90;;;;;;;14.49;100.00;93996.63;6270656;22;20238;-62
2022/09/11 06:22:37;;;;;;;1999.90;999.90;;;;;;;14.51;100.00;93999.69;6270873;22;20183;-63
2022/09/11 06:25:02;;;;;;;1999.90;999.90;;;;;;;14.59;100.00;94020.09;6245286;23;20282;-64
2022/09/11 06:27:27;;;;;;;1999.90;999.90;;;;;;;14.63;100.00;94036.41;6245686;22;20222;-64
2022/09/11 06:29:54;;;;;;;1999.90;999.90;;;;;;;14.71;100.00;94038.38;6271211;22;20247;-63
2022/09/11 06:32:20;;;;;;;1999.90;999.90;;;;;;;14.81;100.00;94053.63;6270342;22;20207;-64
2022/09/11 06:34:45;;;;;;;1999.90;999.90;;;;;;;14.96;100.00;94070.22;6244988;23;20161;-64
2022/09/11 06:37:11;;;;;;;1999.90;999.90;;;;;;;15.10;100.00;94075.84;6271187;22;20165;-64
2022/09/11 06:39:36;;;;;;;1999.90;999.90;;;;;;;15.26;100.00;94074.72;6245006;23;20229;-64
2022/09/11 06:42:02;;;;;;;1999.90;999.90;;;;;;;15.40;100.00;94091.31;6271738;22;20197;-64
2022/09/11 06:44:27;;;;;;;1999.90;999.90;;;;;;;15.54;100.00;94112.66;6246047;22;20172;-64
2022/09/11 06:46:53;;;;;;;1999.90;999.90;;;;;;;15.53;100.00;94126.88;6246128;22;20511;-63
2022/09/11 06:49:18;;;;;;;1999.90;999.90;;;;;;;15.65;100.00;94129.41;6271728;22;20183;-63
2022/09/11 06:51:44;;;;;;;1999.90;999.90;;;;;;;15.70;100.00;94145.28;6246029;22;20173;-63
2022/09/11 06:54:10;;;;;;;1999.90;999.90;;;;;;;15.60;100.00;94171.34;6271454;22;20196;-64
2022/09/11 06:56:35;;;;;;;1999.90;999.90;;;;;;;15.59;100.00;94180.81;6245881;22;20244;-64
2022/09/11 06:59:01;;;;;;;1999.90;999.90;;;;;;;15.58;100.00;94184.81;6271669;22;20165;-63
2022/09/11 07:01:27;;;;;;;1999.90;999.90;;;;;;;15.57;100.00;94199.78;6246575;23;20183;-64
2022/09/11 07:03:53;;;;;;;1999.90;999.90;;;;;;;15.54;100.00;94208.19;6246998;22;20165;-63
2022/09/11 07:06:24;;;;;;;1999.90;999.90;;;;;;;15.64;100.00;94204.97;6246313;22;20165;-63
2022/09/11 07:08:59;;;;;;;1999.90;999.90;;;;;;;15.69;100.00;94203.56;6246576;22;20169;-64
2022/09/11 07:11:25;;;;;;;1999.90;999.90;;;;;;;15.74;100.00;94217.44;6271828;22;20168;-62
2022/09/11 07:13:50;;;;;;;1999.90;999.90;;;;;;;15.77;100.00;94230.28;6246070;23;20196;-63
2022/09/11 07:16:16;;;;;;;1999.90;999.90;;;;;;;15.77;100.00;94235.81;6246056;23;20234;-62
2022/09/11 07:18:44;;;;;;;1999.90;999.90;;;;;;;15.76;100.00;94245.28;6245641;23;20165;-59
2022/09/11 07:21:16;;;;;;;1999.90;999.90;;;;;;;16.06;100.00;94237.97;6245984;23;20224;-61
2022/09/11 07:23:46;;;;;;;1999.90;999.90;;;;;;;16.97;100.00;94240.94;6245908;22;20188;-61
2022/09/11 07:26:11;;;;;;;1999.90;999.90;;;;;;;17.01;100.00;94261.59;6246108;23;20165;-60
2022/09/11 07:28:38;;;;;;;1999.90;999.90;;;;;;;16.95;100.00;94284.78;6246352;22;20161;-60
2022/09/11 07:31:14;;;;;;;1999.90;999.90;;;;;;;16.97;100.00;94304.41;6246103;22;20169;-61
2022/09/11 07:33:44;;;;;;;1999.90;999.90;;;;;;;17.03;100.00;94305.25;6246415;23;20161;-60
2022/09/11 07:36:19;;;;;;;1999.90;999.90;;;;;;;16.95;100.00;94312.38;6272342;22;20191;-61
2022/09/11 07:38:46;;;;;;;1999.90;999.90;;;;;;;16.61;100.00;94324.66;6246283;23;20175;-60
2022/09/11 07:41:14;;;;;;;1999.90;999.90;;;;;;;16.34;100.00;94320.03;6245843;23;20188;-60
2022/09/11 07:43:49;;;;;;;1999.90;999.90;;;;;;;16.16;100.00;94308.31;6245945;23;20252;-60
2022/09/11 07:46:14;;;;;;;1999.90;999.90;;;;;;;16.04;100.00;94304.56;6246232;23;20165;-60
2022/09/11 07:48:41;;;;;;;1999.90;999.90;;;;;;;16.08;100.00;94296.88;6246047;23;20168;-59
2022/09/11 07:51:12;;;;;;;1999.90;999.90;;;;;;;16.15;100.00;94291.06;6245985;23;20181;-60
2022/09/11 07:53:40;;;;;;;1999.90;999.90;;;;;;;16.25;100.00;94292.50;6246187;22;20176;-60
2022/09/11 07:56:08;;;;;;;1999.90;999.90;;;;;;;16.38;100.00;94278.53;6271540;22;20157;-60
2022/09/11 07:58:38;;;;;;;1999.90;999.90;;;;;;;16.46;100.00;94290.00;6271413;22;20165;-60
2022/09/11 08:01:06;;;;;;;1999.90;999.90;;;;;;;16.57;100.00;94287.50;6245964;22;20208;-61
2022/09/11 08:03:33;;;;;;;1999.90;999.90;;;;;;;16.62;100.00;94293.13;6245760;23;20587;-59
2022/09/11 08:06:06;;;;;;;1999.90;999.90;;;;;;;16.63;100.00;94286.38;6245639;23;20259;-59
2022/09/11 08:08:33;;;;;;;1999.90;999.90;;;;;;;16.80;100.00;94281.22;6246430;23;20168;-54
2022/09/11 08:11:05;;;;;;;1999.90;999.90;;;;;;;17.04;100.00;94279.22;6245708;22;20236;-59
2022/09/11 08:13:30;;;;;;;1999.90;999.90;;;;;;;17.26;100.00;94290.69;6245878;23;20207;-59
2022/09/11 08:15:56;;;;;;;1999.90;999.90;;;;;;;17.63;100.00;94286.38;6271408;22;20161;-59
2022/09/11 08:18:22;;;;;;;1999.90;999.90;;;;;;;17.89;100.00;94309.44;6271523;22;20165;-58
2022/09/11 08:20:48;;;;;;;1999.90;999.90;;;;;;;17.86;100.00;94338.00;6245796;22;20184;-58
2022/09/11 08:23:14;;;;;;;1999.90;999.90;;;;;;;17.91;100.00;94348.38;6245819;22;20161;-58
2022/09/11 08:25:40;;;;;;;1999.90;999.90;;;;;;;18.09;100.00;94362.00;6246067;23;20165;-59
2022/09/11 08:28:06;;;;;;;1999.90;999.90;;;;;;;18.27;100.00;94367.34;6245863;22;20175;-60
2022/09/11 08:30:33;;;;;;;1999.90;999.90;;;;;;;18.28;100.00;94386.22;6245576;22;20200;-59
2022/09/11 08:33:00;;;;;;;1999.90;999.90;;;;;;;17.99;100.00;94399.28;6245402;22;20211;-60
2022/09/11 08:35:25;;;;;;;1999.90;999.90;;;;;;;17.61;100.00;94413.09;6245801;22;20210;-59
2022/09/11 08:37:53;;;;;;;1999.90;999.90;;;;;;;17.44;100.00;94414.78;6245746;23;20157;-59
2022/09/11 08:40:19;;;;;;;1999.90;999.90;;;;;;;17.36;100.00;94419.06;6246031;22;20191;-59
2022/09/11 08:42:46;;;;;;;1999.90;999.90;;;;;;;17.28;100.00;94415.16;6245693;22;20221;-58
2022/09/11 08:45:16;;;;;;;1999.90;999.90;;;;;;;17.17;100.00;94420.44;6245502;23;20165;-59
2022/09/11 08:47:49;;;;;;;1999.90;999.90;;;;;;;17.33;100.00;94411.75;6245593;23;20161;-60
2022/09/11 08:50:25;;;;;;;1999.90;999.90;;;;;;;17.34;100.00;94410.53;6245888;23;20203;-62
2022/09/11 08:52:51;;;;;;;1999.90;999.90;;;;;;;17.34;100.00;94416.78;6271656;22;20172;-61
2022/09/11 08:55:27;;;;;;;1999.90;999.90;;;;;;;17.38;100.00;94420.16;6246223;22;20161;-61
2022/09/11 08:58:06;;;;;;;1999.90;999.90;;;;;;;17.39;100.00;94420.91;6246412;23;20167;-61
2022/09/11 09:00:50;;;;;;;1999.90;999.90;;;;;;;17.51;100.00;94426.22;6245946;23;20189;-61
2022/09/11 09:03:45;;;;;;;1999.90;999.90;;;;;;;17.51;100.00;94425.44;6270771;22;20187;-61
2022/09/11 09:06:24;;;;;;;1999.90;999.90;;;;;;;17.85;100.00;94435.94;6271379;22;20165;-63
2022/09/11 09:08:52;;;;;;;1999.90;999.90;;;;;;;17.82;100.00;94442.41;6271521;22;20169;-60
2022/09/11 09:11:39;;;;;;;1999.90;999.90;;;;;;;17.72;100.00;94454.75;6270916;22;20169;-61
2022/09/11 09:14:31;;;;;;;1999.90;999.90;;;;;;;17.56;100.00;94460.69;6271718;22;20471;-60
2022/09/11 09:17:02;;;;;;;1999.90;999.90;;;;;;;17.61;100.00;94462.81;6229530;23;20165;-60
2022/09/11 09:19:45;;;;;;;1999.90;999.90;;;;;;;17.71;100.00;94459.53;6245522;23;20225;-59
2022/09/11 09:22:32;;;;;;;1999.90;999.90;;;;;;;17.95;100.00;94462.25;6245998;23;20267;-59
2022/09/11 09:25:02;;;;;;;1999.90;999.90;;;;;;;18.31;100.00;94472.97;6271071;22;20198;-59
2022/09/11 09:27:44;;;;;;;1999.90;999.90;;;;;;;18.22;100.00;94475.81;6245902;23;20168;-60
2022/09/11 09:30:22;;;;;;;1999.90;999.90;;;;;;;18.07;100.00;94495.13;6245958;23;20165;-59
2022/09/11 09:32:55;;;;;;;1999.90;999.90;;;;;;;18.04;100.00;94511.91;6245719;23;20188;-59
2022/09/11 09:35:44;;;;;;;1999.90;999.90;;;;;;;17.88;100.00;94509.59;6246039;23;20165;-61
2022/09/11 09:38:13;;;;;;;1999.90;999.90;;;;;;;17.88;100.00;94506.81;6271111;22;20173;-55
2022/09/11 09:40:58;;;;;;;1999.90;999.90;;;;;;;17.67;100.00;94497.56;6245440;23;20200;-60
2022/09/11 09:43:23;;;;;;;1999.90;999.90;;;;;;;17.34;100.00;94480.25;6245950;23;20169;-60
2022/09/11 09:45:53;;;;;;;1999.90;999.90;;;;;;;17.36;100.00;94474.28;6271660;22;20223;-59
2022/09/11 09:48:19;;;;;;;1999.90;999.90;;;;;;;17.47;100.00;94475.31;6270840;22;20172;-62
2022/09/11 09:50:46;;;;;;;1999.90;999.90;;;;;;;17.39;100.00;94473.34;6270658;22;20185;-59
2022/09/11 09:53:38;;;;;;;1999.90;999.90;;;;;;;17.29;100.00;94466.34;6270987;22;20165;-62
2022/09/11 09:56:04;;;;;;;1999.90;999.90;;;;;;;17.18;100.00;94471.63;6270940;22;20169;-60
2022/09/11 09:58:35;;;;;;;1999.90;999.90;;;;;;;17.45;100.00;94468.75;6271155;22;20165;-60
2022/09/11 10:01:01;;;;;;;1999.90;999.90;;;;;;;17.64;100.00;94468.16;6245957;23;20189;-59
2022/09/11 10:03:26;;;;;;;1999.90;999.90;;;;;;;17.68;100.00;94470.72;6245388;23;20161;-59
2022/09/11 10:05:54;;;;;;;1999.90;999.90;;;;;;;17.89;100.00;94466.91;6271245;22;20191;-58
2022/09/11 10:08:24;;;;;;;1999.90;999.90;;;;;;;17.73;100.00;94478.34;6246080;23;20256;-58
2022/09/11 10:11:02;;;;;;;1999.90;999.90;;;;;;;17.51;100.00;94494.47;6270859;22;20256;-60
2022/09/11 10:13:31;;;;;;;1999.90;999.90;;;;;;;17.27;100.00;94491.69;6245170;22;20164;-58
2022/09/11 10:16:00;;;;;;;1999.90;999.90;;;;;;;16.78;100.00;94485.00;6244447;22;20157;-64
2022/09/11 10:18:31;;;;;;;1999.90;999.90;;;;;;;16.36;100.00;94463.63;6270587;22;20161;-60
2022/09/11 10:21:11;;;;;;;1999.90;999.90;;;;;;;16.07;100.00;94452.34;6270440;22;20189;-59
2022/09/11 10:23:55;;;;;;;1999.90;999.90;;;;;;;16.02;100.00;94422.69;6270753;22;20172;-65
2022/09/11 10:26:30;;;;;;;1999.90;999.90;;;;;;;16.01;100.00;94393.63;6245031;22;20173;-59
2022/09/11 10:29:06;;;;;;;1999.90;999.90;;;;;;;16.01;100.00;94381.81;6271591;22;20174;-60
2022/09/11 10:31:33;;;;;;;1999.90;999.90;;;;;;;15.93;100.00;94358.59;6271390;22;20191;-60
2022/09/11 10:33:59;;;;;;;1999.90;999.90;;;;;;;15.75;100.00;94353.13;6245220;22;20165;-60
2022/09/11 10:36:29;;;;;;;1999.90;999.90;;;;;;;15.79;100.00;94337.97;6245070;22;20214;-61
2022/09/11 10:38:57;;;;;;;1999.90;999.90;;;;;;;15.76;100.00;94335.38;6245047;23;20256;-59
2022/09/11 10:41:27;;;;;;;1999.90;999.90;;;;;;;15.68;100.00;94310.16;6270381;22;20180;-59
2022/09/11 10:44:11;;;;;;;1999.90;999.90;;;;;;;15.84;100.00;94278.75;6244768;23;20200;-61
2022/09/11 10:46:41;;;;;;;1999.90;999.90;;;;;;;16.07;100.00;94256.03;6245477;23;20240;-59
2022/09/11 10:49:10;;;;;;;1999.90;999.90;;;;;;;16.23;100.00;94239.88;6270426;22;20219;-59
2022/09/11 10:51:40;;;;;;;1999.90;999.90;;;;;;;16.32;100.00;94225.31;6270440;22;20180;-61
2022/09/11 10:54:36;;;;;;;1999.90;999.90;;;;;;;16.42;100.00;94219.28;6245246;23;20172;-61
2022/09/11 10:57:27;;;;;;;1999.90;999.90;;;;;;;16.64;100.00;94218.22;6270658;22;20167;-63
2022/09/11 11:00:05;;;;;;;1999.90;999.90;;;;;;;16.81;100.00;94211.03;6245450;23;20192;-61
2022/09/11 11:02:33;;;;;;;1999.90;999.90;;;;;;;17.22;100.00;94208.06;6271177;22;20165;-59